sensor_id;sensor_type;location;lat;lon;timestamp;pressure;altitude;pressure_sealevel;temperature;humidity
37904;BME280;23738;50.422;18.758;2023-06-26T00:00:18;98577.68;;;14.17;68.61
37904;BME280;23738;50.422;18.758;2023-06-26T00:02:47;98579.23;;;14.17;68.77
37904;BME280;23738;50.422;18.758;2023-06-26T00:05:16;98579.15;;;14.17;68.76
37904;BME280;23738;50.422;18.758;2023-06-26T00:07:46;98576.46;;;14.15;68.94
37904;BME280;23738;50.422;18.758;2023-06-26T00:10:15;98580.16;;;14.11;69.02
37904;BME280;23738;50.422;18.758;2023-06-26T00:12:44;98578.92;;;14.07;69.03
37904;BME280;23738;50.422;18.758;2023-06-26T00:15:14;98577.42;;;14.02;68.92
37904;BME280;23738;50.422;18.758;2023-06-26T00:17:43;98580.55;;;14.00;68.99
37904;BME280;23738;50.422;18.758;2023-06-26T00:20:13;98582.48;;;13.99;69.10
37904;BME280;23738;50.422;18.758;2023-06-26T00:22:45;98581.19;;;13.97;69.16
37904;BME280;23738;50.422;18.758;2023-06-26T00:25:15;98583.83;;;13.96;69.30
37904;BME280;23738;50.422;18.758;2023-06-26T00:27:44;98582.39;;;13.92;69.33
37904;BME280;23738;50.422;18.758;2023-06-26T00:30:14;98580.05;;;13.88;69.32
37904;BME280;23738;50.422;18.758;2023-06-26T00:32:43;98581.39;;;13.84;69.35
37904;BME280;23738;50.422;18.758;2023-06-26T00:35:13;98579.61;;;13.80;69.28
37904;BME280;23738;50.422;18.758;2023-06-26T00:37:42;98578.58;;;13.77;69.37
37904;BME280;23738;50.422;18.758;2023-06-26T00:40:14;98580.91;;;13.75;69.51
37904;BME280;23738;50.422;18.758;2023-06-26T00:42:43;98575.91;;;13.73;69.57
37904;BME280;23738;50.422;18.758;2023-06-26T00:45:12;98577.13;;;13.71;69.73
37904;BME280;23738;50.422;18.758;2023-06-26T00:47:42;98578.73;;;13.68;69.79
37904;BME280;23738;50.422;18.758;2023-06-26T00:50:12;98577.14;;;13.64;69.79
37904;BME280;23738;50.422;18.758;2023-06-26T00:52:43;98579.41;;;13.61;69.81
37904;BME280;23738;50.422;18.758;2023-06-26T00:55:13;98578.06;;;13.56;69.89
37904;BME280;23738;50.422;18.758;2023-06-26T00:57:43;98570.91;;;13.51;69.77
37904;BME280;23738;50.422;18.758;2023-06-26T01:28:14;98568.82;;;13.28;70.21
37904;BME280;23738;50.422;18.758;2023-06-26T01:30:45;98565.52;;;13.23;70.33
37904;BME280;23738;50.422;18.758;2023-06-26T01:33:16;98564.10;;;13.20;70.46
37904;BME280;23738;50.422;18.758;2023-06-26T01:35:46;98558.66;;;13.17;70.57
37904;BME280;23738;50.422;18.758;2023-06-26T01:38:18;98555.13;;;13.14;70.60
37904;BME280;23738;50.422;18.758;2023-06-26T01:40:48;98552.36;;;13.13;70.57
37904;BME280;23738;50.422;18.758;2023-06-26T01:43:23;98555.77;;;13.13;70.67
37904;BME280;23738;50.422;18.758;2023-06-26T01:45:56;98555.30;;;13.15;70.81
37904;BME280;23738;50.422;18.758;2023-06-26T01:48:30;98553.49;;;13.15;70.82
37904;BME280;23738;50.422;18.758;2023-06-26T01:51:02;98550.75;;;13.13;70.86
37904;BME280;23738;50.422;18.758;2023-06-26T01:53:38;98548.95;;;13.10;70.86
37904;BME280;23738;50.422;18.758;2023-06-26T01:56:16;98548.34;;;13.06;70.95
37904;BME280;23738;50.422;18.758;2023-06-26T01:58:49;98549.86;;;12.97;70.88
37904;BME280;23738;50.422;18.758;2023-06-26T02:01:21;98550.23;;;12.95;70.87
37904;BME280;23738;50.422;18.758;2023-06-26T02:03:50;98547.42;;;12.92;70.93
37904;BME280;23738;50.422;18.758;2023-06-26T02:06:20;98546.36;;;12.91;71.04
37904;BME280;23738;50.422;18.758;2023-06-26T02:08:49;98548.29;;;12.90;71.16
37904;BME280;23738;50.422;18.758;2023-06-26T02:11:18;98553.05;;;12.87;71.05
37904;BME280;23738;50.422;18.758;2023-06-26T02:13:47;98550.86;;;12.83;71.23
37904;BME280;23738;50.422;18.758;2023-06-26T02:16:16;98547.20;;;12.79;71.22
37904;BME280;23738;50.422;18.758;2023-06-26T02:18:46;98546.83;;;12.74;71.21
37904;BME280;23738;50.422;18.758;2023-06-26T02:21:15;98546.17;;;12.73;71.24
37904;BME280;23738;50.422;18.758;2023-06-26T02:23:45;98549.68;;;12.73;71.29
37904;BME280;23738;50.422;18.758;2023-06-26T02:26:14;98549.80;;;12.73;71.35
37904;BME280;23738;50.422;18.758;2023-06-26T02:28:43;98548.63;;;12.71;71.33
37904;BME280;23738;50.422;18.758;2023-06-26T02:31:12;98546.53;;;12.68;71.49
37904;BME280;23738;50.422;18.758;2023-06-26T02:33:42;98543.08;;;12.65;71.52
37904;BME280;23738;50.422;18.758;2023-06-26T02:36:13;98545.50;;;12.61;71.57
37904;BME280;23738;50.422;18.758;2023-06-26T02:38:42;98549.81;;;12.57;71.49
37904;BME280;23738;50.422;18.758;2023-06-26T02:41:11;98549.89;;;12.57;71.51
37904;BME280;23738;50.422;18.758;2023-06-26T02:43:41;98549.52;;;12.58;71.68
37904;BME280;23738;50.422;18.758;2023-06-26T02:46:10;98550.15;;;12.61;71.83
37904;BME280;23738;50.422;18.758;2023-06-26T02:48:39;98547.80;;;12.63;71.80
37904;BME280;23738;50.422;18.758;2023-06-26T02:51:09;98550.89;;;12.61;71.94
37904;BME280;23738;50.422;18.758;2023-06-26T02:53:38;98549.73;;;12.58;71.91
37904;BME280;23738;50.422;18.758;2023-06-26T02:56:07;98544.98;;;12.53;72.06
37904;BME280;23738;50.422;18.758;2023-06-26T02:58:36;98541.99;;;12.48;71.90
37904;BME280;23738;50.422;18.758;2023-06-26T03:01:06;98544.18;;;12.47;71.92
37904;BME280;23738;50.422;18.758;2023-06-26T03:03:35;98546.47;;;12.47;71.93
37904;BME280;23738;50.422;18.758;2023-06-26T03:06:08;98545.89;;;12.49;72.20
37904;BME280;23738;50.422;18.758;2023-06-26T03:08:38;98550.91;;;12.51;72.17
37904;BME280;23738;50.422;18.758;2023-06-26T03:11:08;98548.87;;;12.50;72.31
37904;BME280;23738;50.422;18.758;2023-06-26T03:13:38;98552.30;;;12.50;72.36
37904;BME280;23738;50.422;18.758;2023-06-26T03:16:07;98544.50;;;12.50;72.45
37904;BME280;23738;50.422;18.758;2023-06-26T03:18:36;98545.73;;;12.49;72.47
37904;BME280;23738;50.422;18.758;2023-06-26T03:21:06;98546.27;;;12.49;72.53
37904;BME280;23738;50.422;18.758;2023-06-26T03:23:35;98546.95;;;12.51;72.64
37904;BME280;23738;50.422;18.758;2023-06-26T03:26:04;98548.75;;;12.56;72.79
37904;BME280;23738;50.422;18.758;2023-06-26T03:28:34;98545.65;;;12.59;72.80
37904;BME280;23738;50.422;18.758;2023-06-26T03:31:03;98543.82;;;12.65;72.89
37904;BME280;23738;50.422;18.758;2023-06-26T03:33:32;98544.36;;;12.69;72.96
37904;BME280;23738;50.422;18.758;2023-06-26T03:36:02;98547.23;;;12.72;72.95
37904;BME280;23738;50.422;18.758;2023-06-26T03:38:31;98543.20;;;12.75;73.03
37904;BME280;23738;50.422;18.758;2023-06-26T03:41:00;98543.61;;;12.79;73.06
37904;BME280;23738;50.422;18.758;2023-06-26T03:43:30;98542.72;;;12.85;73.25
37904;BME280;23738;50.422;18.758;2023-06-26T03:45:59;98543.17;;;12.92;73.38
37904;BME280;23738;50.422;18.758;2023-06-26T03:48:28;98536.50;;;12.95;73.47
37904;BME280;23738;50.422;18.758;2023-06-26T03:50:58;98533.81;;;12.98;73.63
37904;BME280;23738;50.422;18.758;2023-06-26T03:53:29;98542.71;;;13.06;73.69
37904;BME280;23738;50.422;18.758;2023-06-26T03:55:58;98545.52;;;13.12;73.80
37904;BME280;23738;50.422;18.758;2023-06-26T03:58:28;98541.23;;;13.19;73.92
37904;BME280;23738;50.422;18.758;2023-06-26T04:00:57;98542.02;;;13.28;74.02
37904;BME280;23738;50.422;18.758;2023-06-26T04:03:27;98542.64;;;13.39;74.28
37904;BME280;23738;50.422;18.758;2023-06-26T04:05:56;98544.45;;;13.48;74.44
37904;BME280;23738;50.422;18.758;2023-06-26T04:08:26;98543.55;;;13.57;74.53
37904;BME280;23738;50.422;18.758;2023-06-26T04:10:55;98542.45;;;13.66;74.85
37904;BME280;23738;50.422;18.758;2023-06-26T04:13:26;98540.30;;;13.73;74.82
37904;BME280;23738;50.422;18.758;2023-06-26T04:15:55;98542.48;;;13.81;74.92
37904;BME280;23738;50.422;18.758;2023-06-26T04:18:25;98537.42;;;13.88;75.11
37904;BME280;23738;50.422;18.758;2023-06-26T04:21:08;98542.55;;;14.01;75.34
37904;BME280;23738;50.422;18.758;2023-06-26T04:23:39;98542.96;;;14.15;75.57
37904;BME280;23738;50.422;18.758;2023-06-26T04:26:10;98542.42;;;14.26;75.75
37904;BME280;23738;50.422;18.758;2023-06-26T04:28:41;98542.10;;;14.37;75.90
37904;BME280;23738;50.422;18.758;2023-06-26T04:31:10;98537.18;;;14.46;76.13
37904;BME280;23738;50.422;18.758;2023-06-26T04:33:40;98538.27;;;14.59;76.23
37904;BME280;23738;50.422;18.758;2023-06-26T04:36:09;98539.05;;;14.78;76.57
37904;BME280;23738;50.422;18.758;2023-06-26T04:38:39;98538.49;;;14.99;76.80
37904;BME280;23738;50.422;18.758;2023-06-26T04:41:08;98540.14;;;15.14;76.73
37904;BME280;23738;50.422;18.758;2023-06-26T04:43:37;98537.96;;;15.30;76.92
37904;BME280;23738;50.422;18.758;2023-06-26T04:46:07;98537.27;;;15.48;76.95
37904;BME280;23738;50.422;18.758;2023-06-26T04:48:36;98534.02;;;15.67;76.93
37904;BME280;23738;50.422;18.758;2023-06-26T04:51:06;98534.61;;;15.89;77.01
37904;BME280;23738;50.422;18.758;2023-06-26T04:53:35;98533.10;;;16.12;77.05
37904;BME280;23738;50.422;18.758;2023-06-26T04:56:04;98535.96;;;16.37;77.08
37904;BME280;23738;50.422;18.758;2023-06-26T04:58:34;98533.83;;;16.64;77.04
37904;BME280;23738;50.422;18.758;2023-06-26T05:01:03;98535.90;;;16.83;77.03
37904;BME280;23738;50.422;18.758;2023-06-26T05:03:34;98530.33;;;17.00;76.91
37904;BME280;23738;50.422;18.758;2023-06-26T05:06:05;98531.59;;;17.17;76.95
37904;BME280;23738;50.422;18.758;2023-06-26T05:08:34;98530.23;;;17.38;76.93
37904;BME280;23738;50.422;18.758;2023-06-26T05:11:03;98529.49;;;17.60;76.93
37904;BME280;23738;50.422;18.758;2023-06-26T05:13:33;98529.13;;;17.80;76.96
37904;BME280;23738;50.422;18.758;2023-06-26T05:16:02;98534.31;;;18.04;76.98
37904;BME280;23738;50.422;18.758;2023-06-26T05:18:31;98536.87;;;18.27;76.89
37904;BME280;23738;50.422;18.758;2023-06-26T05:21:02;98535.05;;;18.55;76.89
37904;BME280;23738;50.422;18.758;2023-06-26T05:23:33;98533.83;;;18.84;76.70
37904;BME280;23738;50.422;18.758;2023-06-26T05:26:04;98533.29;;;19.11;76.34
37904;BME280;23738;50.422;18.758;2023-06-26T05:28:35;98527.95;;;19.32;76.14
37904;BME280;23738;50.422;18.758;2023-06-26T05:31:06;98530.33;;;19.57;75.84
37904;BME280;23738;50.422;18.758;2023-06-26T05:33:36;98528.11;;;19.81;75.48
37904;BME280;23738;50.422;18.758;2023-06-26T05:36:08;98527.39;;;20.03;74.97
37904;BME280;23738;50.422;18.758;2023-06-26T05:38:39;98525.23;;;20.23;74.87
37904;BME280;23738;50.422;18.758;2023-06-26T05:41:09;98526.08;;;20.41;74.74
37904;BME280;23738;50.422;18.758;2023-06-26T05:43:39;98526.21;;;20.65;74.65
37904;BME280;23738;50.422;18.758;2023-06-26T05:46:08;98524.06;;;20.88;74.38
37904;BME280;23738;50.422;18.758;2023-06-26T05:48:37;98528.06;;;21.09;73.79
37904;BME280;23738;50.422;18.758;2023-06-26T05:51:08;98526.82;;;21.29;73.71
37904;BME280;23738;50.422;18.758;2023-06-26T05:53:39;98527.73;;;21.45;73.31
37904;BME280;23738;50.422;18.758;2023-06-26T05:56:10;98524.81;;;21.63;73.13
37904;BME280;23738;50.422;18.758;2023-06-26T05:58:40;98524.55;;;21.83;73.17
37904;BME280;23738;50.422;18.758;2023-06-26T06:01:11;98521.29;;;22.10;72.97
37904;BME280;23738;50.422;18.758;2023-06-26T06:03:41;98515.66;;;22.34;72.44
37904;BME280;23738;50.422;18.758;2023-06-26T06:06:10;98515.93;;;22.45;71.84
37904;BME280;23738;50.422;18.758;2023-06-26T06:08:40;98512.58;;;22.58;71.54
37904;BME280;23738;50.422;18.758;2023-06-26T06:11:10;98517.49;;;22.77;70.86
37904;BME280;23738;50.422;18.758;2023-06-26T06:13:40;98516.39;;;22.92;70.58
37904;BME280;23738;50.422;18.758;2023-06-26T06:16:09;98516.74;;;23.10;70.13
37904;BME280;23738;50.422;18.758;2023-06-26T06:18:38;98518.88;;;23.27;69.90
37904;BME280;23738;50.422;18.758;2023-06-26T06:21:07;98519.40;;;23.42;69.61
37904;BME280;23738;50.422;18.758;2023-06-26T06:23:37;98518.08;;;23.54;69.51
37904;BME280;23738;50.422;18.758;2023-06-26T06:26:07;98524.36;;;23.75;69.31
37904;BME280;23738;50.422;18.758;2023-06-26T06:28:36;98526.45;;;23.92;68.27
37904;BME280;23738;50.422;18.758;2023-06-26T06:31:05;98532.64;;;24.03;67.59
37904;BME280;23738;50.422;18.758;2023-06-26T06:33:34;98533.77;;;24.14;67.13
37904;BME280;23738;50.422;18.758;2023-06-26T06:36:04;98530.64;;;24.21;66.18
37904;BME280;23738;50.422;18.758;2023-06-26T06:38:33;98528.98;;;24.37;65.80
37904;BME280;23738;50.422;18.758;2023-06-26T06:41:02;98527.64;;;24.54;65.43
37904;BME280;23738;50.422;18.758;2023-06-26T06:43:32;98526.94;;;24.66;64.59
37904;BME280;23738;50.422;18.758;2023-06-26T06:46:01;98523.92;;;24.81;64.51
37904;BME280;23738;50.422;18.758;2023-06-26T06:48:30;98525.42;;;24.98;64.44
37904;BME280;23738;50.422;18.758;2023-06-26T06:51:00;98529.63;;;25.20;63.85
37904;BME280;23738;50.422;18.758;2023-06-26T06:53:30;98530.12;;;25.34;63.01
37904;BME280;23738;50.422;18.758;2023-06-26T06:56:00;98529.23;;;25.38;62.81
37904;BME280;23738;50.422;18.758;2023-06-26T06:58:29;98529.05;;;25.56;62.85
37904;BME280;23738;50.422;18.758;2023-06-26T07:01:02;98527.48;;;25.76;62.85
37904;BME280;23738;50.422;18.758;2023-06-26T07:03:32;98531.63;;;26.00;62.55
37904;BME280;23738;50.422;18.758;2023-06-26T07:06:01;98528.00;;;26.19;62.08
37904;BME280;23738;50.422;18.758;2023-06-26T07:08:31;98525.88;;;26.37;61.15
37904;BME280;23738;50.422;18.758;2023-06-26T07:11:00;98529.60;;;26.51;60.44
37904;BME280;23738;50.422;18.758;2023-06-26T07:13:29;98528.36;;;26.65;60.18
37904;BME280;23738;50.422;18.758;2023-06-26T07:15:58;98528.02;;;26.86;59.42
37904;BME280;23738;50.422;18.758;2023-06-26T07:18:28;98527.23;;;27.03;58.98
37904;BME280;23738;50.422;18.758;2023-06-26T07:20:57;98527.13;;;27.19;58.68
37904;BME280;23738;50.422;18.758;2023-06-26T07:23:26;98525.32;;;27.40;58.60
37904;BME280;23738;50.422;18.758;2023-06-26T07:25:56;98526.73;;;27.60;57.88
37904;BME280;23738;50.422;18.758;2023-06-26T07:28:26;98524.61;;;27.66;56.70
37904;BME280;23738;50.422;18.758;2023-06-26T07:30:55;98527.45;;;27.63;56.44
37904;BME280;23738;50.422;18.758;2023-06-26T07:33:25;98526.27;;;27.75;56.56
37904;BME280;23738;50.422;18.758;2023-06-26T07:35:54;98520.88;;;27.93;56.71
37904;BME280;23738;50.422;18.758;2023-06-26T07:38:23;98523.58;;;28.18;56.44
37904;BME280;23738;50.422;18.758;2023-06-26T07:40:52;98522.13;;;28.42;55.77
37904;BME280;23738;50.422;18.758;2023-06-26T07:43:21;98521.41;;;28.50;54.69
37904;BME280;23738;50.422;18.758;2023-06-26T07:45:51;98521.97;;;28.55;53.73
37904;BME280;23738;50.422;18.758;2023-06-26T07:48:22;98519.91;;;28.53;53.36
37904;BME280;23738;50.422;18.758;2023-06-26T07:50:51;98518.80;;;28.55;53.32
37904;BME280;23738;50.422;18.758;2023-06-26T07:53:21;98518.00;;;28.60;52.80
37904;BME280;23738;50.422;18.758;2023-06-26T07:55:51;98519.49;;;28.59;52.12
37904;BME280;23738;50.422;18.758;2023-06-26T07:58:20;98518.91;;;28.70;52.10
37904;BME280;23738;50.422;18.758;2023-06-26T08:00:49;98515.49;;;28.68;51.22
37904;BME280;23738;50.422;18.758;2023-06-26T08:03:18;98518.64;;;28.72;51.21
37904;BME280;23738;50.422;18.758;2023-06-26T08:05:48;98512.55;;;28.84;51.13
37904;BME280;23738;50.422;18.758;2023-06-26T08:08:17;98515.69;;;29.06;51.42
37904;BME280;23738;50.422;18.758;2023-06-26T08:10:46;98515.05;;;29.29;50.73
37904;BME280;23738;50.422;18.758;2023-06-26T08:13:16;98516.89;;;29.37;49.78
37904;BME280;23738;50.422;18.758;2023-06-26T08:15:45;98513.77;;;29.41;49.60
37904;BME280;23738;50.422;18.758;2023-06-26T08:18:14;98513.52;;;29.64;50.14
37904;BME280;23738;50.422;18.758;2023-06-26T08:20:44;98511.02;;;29.89;49.63
37904;BME280;23738;50.422;18.758;2023-06-26T08:23:14;98508.80;;;30.07;48.68
37904;BME280;23738;50.422;18.758;2023-06-26T08:25:43;98507.98;;;30.08;47.93
37904;BME280;23738;50.422;18.758;2023-06-26T08:28:12;98513.55;;;30.01;46.39
37904;BME280;23738;50.422;18.758;2023-06-26T08:30:41;98513.81;;;29.84;46.79
37904;BME280;23738;50.422;18.758;2023-06-26T08:33:11;98514.27;;;29.79;46.90
37904;BME280;23738;50.422;18.758;2023-06-26T08:35:40;98510.05;;;29.87;46.27
37904;BME280;23738;50.422;18.758;2023-06-26T08:38:09;98506.34;;;30.02;46.48
37904;BME280;23738;50.422;18.758;2023-06-26T08:40:38;98506.84;;;30.18;46.34
37904;BME280;23738;50.422;18.758;2023-06-26T08:43:09;98504.06;;;30.40;46.72
37904;BME280;23738;50.422;18.758;2023-06-26T08:45:38;98502.53;;;30.71;46.49
37904;BME280;23738;50.422;18.758;2023-06-26T08:48:09;98503.41;;;30.98;45.82
37904;BME280;23738;50.422;18.758;2023-06-26T08:50:39;98504.04;;;31.04;43.80
37904;BME280;23738;50.422;18.758;2023-06-26T08:53:13;98497.96;;;31.07;44.82
37904;BME280;23738;50.422;18.758;2023-06-26T08:55:41;98499.70;;;31.15;44.14
37904;BME280;23738;50.422;18.758;2023-06-26T08:58:12;98498.30;;;31.05;44.22
37904;BME280;23738;50.422;18.758;2023-06-26T09:00:41;98498.02;;;30.96;43.95
37904;BME280;23738;50.422;18.758;2023-06-26T09:03:11;98495.73;;;30.99;43.84
37904;BME280;23738;50.422;18.758;2023-06-26T09:05:41;98495.75;;;31.18;43.61
37904;BME280;23738;50.422;18.758;2023-06-26T09:08:11;98491.31;;;31.36;43.42
37904;BME280;23738;50.422;18.758;2023-06-26T09:10:41;98492.70;;;31.47;42.71
37904;BME280;23738;50.422;18.758;2023-06-26T09:13:10;98490.64;;;31.42;42.25
37904;BME280;23738;50.422;18.758;2023-06-26T09:15:43;98494.48;;;31.33;41.48
37904;BME280;23738;50.422;18.758;2023-06-26T09:18:13;98496.61;;;31.30;42.30
37904;BME280;23738;50.422;18.758;2023-06-26T09:20:42;98496.50;;;31.18;42.22
37904;BME280;23738;50.422;18.758;2023-06-26T09:23:11;98497.13;;;30.74;42.20
37904;BME280;23738;50.422;18.758;2023-06-26T09:25:41;98493.84;;;30.52;42.53
37904;BME280;23738;50.422;18.758;2023-06-26T09:28:13;98492.02;;;30.45;42.33
37904;BME280;23738;50.422;18.758;2023-06-26T09:30:43;98489.88;;;30.05;42.55
37904;BME280;23738;50.422;18.758;2023-06-26T09:33:17;98490.52;;;29.79;43.03
37904;BME280;23738;50.422;18.758;2023-06-26T09:35:48;98495.41;;;29.59;42.87
37904;BME280;23738;50.422;18.758;2023-06-26T09:38:17;98498.06;;;29.53;42.58
37904;BME280;23738;50.422;18.758;2023-06-26T09:40:46;98490.45;;;29.80;42.21
37904;BME280;23738;50.422;18.758;2023-06-26T09:43:24;98488.91;;;30.08;42.29
37904;BME280;23738;50.422;18.758;2023-06-26T09:45:55;98485.84;;;30.32;41.79
37904;BME280;23738;50.422;18.758;2023-06-26T09:48:24;98479.42;;;30.55;41.06
37904;BME280;23738;50.422;18.758;2023-06-26T09:50:55;98479.95;;;30.73;41.47
37904;BME280;23738;50.422;18.758;2023-06-26T09:53:26;98482.61;;;30.65;41.24
37904;BME280;23738;50.422;18.758;2023-06-26T09:55:57;98480.44;;;30.71;41.03
37904;BME280;23738;50.422;18.758;2023-06-26T09:58:29;98475.47;;;30.87;41.16
37904;BME280;23738;50.422;18.758;2023-06-26T10:01:01;98474.35;;;31.02;41.03
37904;BME280;23738;50.422;18.758;2023-06-26T10:03:31;98474.71;;;31.14;41.05
37904;BME280;23738;50.422;18.758;2023-06-26T10:06:02;98473.69;;;31.27;40.69
37904;BME280;23738;50.422;18.758;2023-06-26T10:08:31;98467.84;;;31.21;40.66
37904;BME280;23738;50.422;18.758;2023-06-26T10:11:03;98471.27;;;31.25;40.89
37904;BME280;23738;50.422;18.758;2023-06-26T10:13:41;98466.96;;;31.29;40.88
37904;BME280;23738;50.422;18.758;2023-06-26T10:16:14;98465.55;;;31.31;40.48
37904;BME280;23738;50.422;18.758;2023-06-26T10:18:47;98462.52;;;31.33;39.67
37904;BME280;23738;50.422;18.758;2023-06-26T10:21:18;98462.67;;;31.33;40.12
37904;BME280;23738;50.422;18.758;2023-06-26T10:23:51;98459.65;;;31.47;39.94
37904;BME280;23738;50.422;18.758;2023-06-26T10:26:22;98460.98;;;31.63;40.27
37904;BME280;23738;50.422;18.758;2023-06-26T10:28:54;98457.73;;;31.85;40.00
37904;BME280;23738;50.422;18.758;2023-06-26T10:31:27;98456.95;;;31.89;39.38
37904;BME280;23738;50.422;18.758;2023-06-26T10:33:58;98447.89;;;32.04;39.94
37904;BME280;23738;50.422;18.758;2023-06-26T10:36:30;98450.77;;;32.28;39.20
37904;BME280;23738;50.422;18.758;2023-06-26T10:39:05;98453.21;;;32.33;39.08
37904;BME280;23738;50.422;18.758;2023-06-26T10:41:40;98448.52;;;32.41;38.79
37904;BME280;23738;50.422;18.758;2023-06-26T10:44:11;98443.87;;;32.35;39.10
37904;BME280;23738;50.422;18.758;2023-06-26T10:46:54;98441.02;;;32.46;38.57
37904;BME280;23738;50.422;18.758;2023-06-26T10:49:29;98439.50;;;32.47;38.48
37904;BME280;23738;50.422;18.758;2023-06-26T10:52:02;98441.09;;;32.46;37.80
37904;BME280;23738;50.422;18.758;2023-06-26T10:54:32;98435.55;;;32.43;37.63
37904;BME280;23738;50.422;18.758;2023-06-26T10:57:03;98433.28;;;32.41;37.44
37904;BME280;23738;50.422;18.758;2023-06-26T10:59:33;98429.23;;;32.49;37.46
37904;BME280;23738;50.422;18.758;2023-06-26T11:02:04;98432.11;;;32.51;37.74
37904;BME280;23738;50.422;18.758;2023-06-26T11:04:46;98430.05;;;32.53;36.97
37904;BME280;23738;50.422;18.758;2023-06-26T11:07:18;98429.16;;;32.44;37.12
37904;BME280;23738;50.422;18.758;2023-06-26T11:09:57;98432.09;;;32.40;37.38
37904;BME280;23738;50.422;18.758;2023-06-26T11:12:40;98431.91;;;32.39;37.40
37904;BME280;23738;50.422;18.758;2023-06-26T11:15:11;98423.67;;;32.41;36.89
37904;BME280;23738;50.422;18.758;2023-06-26T11:17:41;98420.91;;;32.39;37.14
37904;BME280;23738;50.422;18.758;2023-06-26T11:20:13;98422.55;;;32.45;35.42
37904;BME280;23738;50.422;18.758;2023-06-26T11:22:43;98421.56;;;32.38;36.96
37904;BME280;23738;50.422;18.758;2023-06-26T11:25:13;98419.55;;;32.36;37.56
37904;BME280;23738;50.422;18.758;2023-06-26T11:27:43;98421.65;;;32.33;37.18
37904;BME280;23738;50.422;18.758;2023-06-26T11:30:24;98422.77;;;32.28;37.02
37904;BME280;23738;50.422;18.758;2023-06-26T11:33:01;98412.00;;;32.37;36.53
37904;BME280;23738;50.422;18.758;2023-06-26T11:35:31;98414.84;;;32.25;36.29
37904;BME280;23738;50.422;18.758;2023-06-26T11:38:02;98418.65;;;32.12;36.39
37904;BME280;23738;50.422;18.758;2023-06-26T11:40:34;98414.79;;;32.11;37.14
37904;BME280;23738;50.422;18.758;2023-06-26T11:43:05;98414.08;;;32.20;37.13
37904;BME280;23738;50.422;18.758;2023-06-26T11:45:44;98412.96;;;32.12;36.83
37904;BME280;23738;50.422;18.758;2023-06-26T11:48:13;98410.73;;;32.06;37.25
37904;BME280;23738;50.422;18.758;2023-06-26T11:50:42;98408.77;;;32.13;37.37
37904;BME280;23738;50.422;18.758;2023-06-26T11:53:16;98408.27;;;32.19;36.87
37904;BME280;23738;50.422;18.758;2023-06-26T11:55:47;98400.09;;;32.27;36.47
37904;BME280;23738;50.422;18.758;2023-06-26T11:58:20;98401.11;;;32.36;36.80
37904;BME280;23738;50.422;18.758;2023-06-26T12:00:50;98402.21;;;32.44;37.04
37904;BME280;23738;50.422;18.758;2023-06-26T12:03:20;98398.06;;;32.48;35.60
37904;BME280;23738;50.422;18.758;2023-06-26T12:05:50;98398.80;;;32.50;35.96
37904;BME280;23738;50.422;18.758;2023-06-26T12:08:20;98391.45;;;32.58;35.72
37904;BME280;23738;50.422;18.758;2023-06-26T12:10:51;98389.27;;;32.63;35.59
37904;BME280;23738;50.422;18.758;2023-06-26T12:13:21;98388.84;;;32.72;35.68
37904;BME280;23738;50.422;18.758;2023-06-26T12:15:51;98387.20;;;32.70;35.04
37904;BME280;23738;50.422;18.758;2023-06-26T12:18:21;98388.02;;;32.58;35.02
37904;BME280;23738;50.422;18.758;2023-06-26T12:20:53;98380.92;;;32.58;35.40
37904;BME280;23738;50.422;18.758;2023-06-26T12:23:22;98377.84;;;32.57;35.82
37904;BME280;23738;50.422;18.758;2023-06-26T12:25:52;98379.28;;;32.69;36.44
37904;BME280;23738;50.422;18.758;2023-06-26T12:28:21;98378.04;;;32.80;35.80
37904;BME280;23738;50.422;18.758;2023-06-26T12:31:14;98371.71;;;32.83;35.41
37904;BME280;23738;50.422;18.758;2023-06-26T12:33:45;98373.29;;;32.84;35.89
37904;BME280;23738;50.422;18.758;2023-06-26T12:36:14;98370.51;;;32.85;35.45
37904;BME280;23738;50.422;18.758;2023-06-26T12:38:48;98371.39;;;32.77;35.37
37904;BME280;23738;50.422;18.758;2023-06-26T12:41:17;98369.63;;;32.73;35.47
37904;BME280;23738;50.422;18.758;2023-06-26T12:43:48;98366.73;;;32.70;35.42
37904;BME280;23738;50.422;18.758;2023-06-26T12:46:18;98371.27;;;32.65;35.44
37904;BME280;23738;50.422;18.758;2023-06-26T12:48:48;98366.95;;;32.58;35.54
37904;BME280;23738;50.422;18.758;2023-06-26T12:51:19;98367.73;;;32.56;35.63
37904;BME280;23738;50.422;18.758;2023-06-26T12:53:54;98369.19;;;32.58;35.79
37904;BME280;23738;50.422;18.758;2023-06-26T12:56:24;98363.50;;;32.58;35.52
37904;BME280;23738;50.422;18.758;2023-06-26T12:58:53;98364.68;;;32.61;34.86
37904;BME280;23738;50.422;18.758;2023-06-26T13:01:22;98364.30;;;32.59;34.91
37904;BME280;23738;50.422;18.758;2023-06-26T13:03:52;98358.21;;;32.64;34.82
37904;BME280;23738;50.422;18.758;2023-06-26T13:06:21;98358.14;;;32.65;34.83
37904;BME280;23738;50.422;18.758;2023-06-26T13:08:50;98351.14;;;32.63;34.65
37904;BME280;23738;50.422;18.758;2023-06-26T13:11:20;98350.63;;;32.64;35.22
37904;BME280;23738;50.422;18.758;2023-06-26T13:13:51;98348.22;;;32.62;34.88
37904;BME280;23738;50.422;18.758;2023-06-26T13:16:20;98347.05;;;32.57;35.54
37904;BME280;23738;50.422;18.758;2023-06-26T13:18:49;98344.70;;;32.67;35.27
37904;BME280;23738;50.422;18.758;2023-06-26T13:21:19;98344.83;;;32.72;34.77
37904;BME280;23738;50.422;18.758;2023-06-26T13:23:48;98343.56;;;32.60;35.34
37904;BME280;23738;50.422;18.758;2023-06-26T13:26:18;98342.48;;;32.63;35.74
37904;BME280;23738;50.422;18.758;2023-06-26T13:28:48;98336.85;;;32.75;35.68
37904;BME280;23738;50.422;18.758;2023-06-26T13:31:17;98339.36;;;32.68;35.10
37904;BME280;23738;50.422;18.758;2023-06-26T13:33:47;98334.73;;;32.55;35.26